Time;durP1;ratioP1;P1;durP2;ratioP2;P2;SDS_P1;SDS_P2;PMS_P1;PMS_P2;Temp;Humidity;BMP_temperature;BMP_pressure;BME280_temperature;BME280_humidity;BME280_pressure;Samples;Min_cycle;Max_cycle;Signal;HPM_P1;HPM_P2
2020/12/21 00:01:59;;;;;;;27.52;15.53;;;;;;;-0.41;81.77;101717.19;1770634;81;21386;-80
2020/12/21 00:05:05;;;;;;;27.45;15.53;;;;;;;-0.46;81.88;101714.71;1770844;81;21315;-80
2020/12/21 00:08:11;;;;;;;29.42;16.77;;;;;;;-0.49;81.96;101710.81;1771201;81;21387;-80
2020/12/21 00:11:18;;;;;;;23.22;13.40;;;;;;;-0.47;81.95;101714.32;1769569;81;21184;-80
2020/12/21 00:14:25;;;;;;;30.02;15.43;;;;;;;-0.45;81.87;101717.80;1769064;81;21235;-80
2020/12/21 00:17:31;;;;;;;32.93;15.75;;;;;;;-0.43;81.81;101724.44;1780907;80;21334;-80
2020/12/21 00:20:37;;;;;;;26.82;14.38;;;;;;;-0.39;81.52;101726.91;1781740;80;21176;-80
2020/12/21 00:23:43;;;;;;;24.98;13.78;;;;;;;-0.37;81.08;101718.31;1780499;80;21299;-80
2020/12/21 00:26:53;;;;;;;24.87;13.80;;;;;;;-0.37;80.70;101721.48;1781843;80;21351;-80
2020/12/21 00:30:00;;;;;;;22.40;12.70;;;;;;;-0.45;80.49;101724.52;1780288;80;21755;-79
2020/12/21 00:33:06;;;;;;;20.88;11.88;;;;;;;-0.47;80.49;101725.52;1780296;80;21862;-80
2020/12/21 00:36:14;;;;;;;22.02;12.30;;;;;;;-0.53;80.23;101718.61;1780168;80;21358;-80
2020/12/21 00:39:19;;;;;;;20.62;10.88;;;;;;;-0.58;79.61;101721.98;1781732;80;21299;-80
2020/12/21 00:42:25;;;;;;;21.30;12.33;;;;;;;-0.62;79.75;101723.07;1781526;80;21295;-79
2020/12/21 00:45:30;;;;;;;20.35;11.00;;;;;;;-0.64;80.04;101713.75;1781800;80;21351;-79
2020/12/21 00:48:36;;;;;;;20.08;11.45;;;;;;;-0.66;79.94;101717.43;1781839;80;21311;-80
2020/12/21 00:51:42;;;;;;;19.73;9.88;;;;;;;-0.73;80.00;101713.30;1781832;80;21185;-81
2020/12/21 00:54:50;;;;;;;16.40;8.90;;;;;;;-0.76;80.08;101719.66;1781746;80;21291;-80
2020/12/21 00:57:57;;;;;;;17.07;9.40;;;;;;;-0.77;79.92;101725.52;1781858;80;21186;-80
2020/12/21 01:01:03;;;;;;;12.25;8.05;;;;;;;-0.80;79.12;101732.39;1781831;80;21299;-80
2020/12/21 01:04:09;;;;;;;10.85;7.37;;;;;;;-0.86;78.53;101723.23;1779455;80;21751;-80
2020/12/21 01:07:15;;;;;;;14.10;7.87;;;;;;;-0.89;78.21;101719.37;1781804;79;21331;-80
2020/12/21 01:10:21;;;;;;;12.20;6.25;;;;;;;-0.91;77.02;101718.55;1781855;80;21286;-80
2020/12/21 01:13:27;;;;;;;9.43;6.53;;;;;;;-0.93;76.46;101721.78;1781014;80;21528;-80
2020/12/21 01:16:32;;;;;;;10.72;6.03;;;;;;;-0.95;75.75;101718.75;1777999;80;21859;-80
2020/12/21 01:19:37;;;;;;;8.85;6.15;;;;;;;-0.94;75.40;101720.05;1778026;80;21843;-80
2020/12/21 01:22:44;;;;;;;10.10;5.85;;;;;;;-0.93;75.20;101716.41;1779452;80;21822;-81
2020/12/21 01:25:50;;;;;;;9.35;6.03;;;;;;;-0.90;74.96;101714.05;1779401;80;21307;-80
2020/12/21 01:28:57;;;;;;;9.38;6.15;;;;;;;-0.87;74.30;101718.81;1778834;80;21731;-80
2020/12/21 01:32:02;;;;;;;10.68;6.50;;;;;;;-0.81;74.28;101720.34;1779703;80;21724;-80
2020/12/21 01:35:07;;;;;;;9.95;6.72;;;;;;;-0.82;74.58;101722.64;1779994;80;21294;-80
2020/12/21 01:38:13;;;;;;;9.48;6.62;;;;;;;-0.85;75.12;101726.80;1778342;80;21866;-80
2020/12/21 01:41:18;;;;;;;10.25;6.00;;;;;;;-0.92;75.81;101723.52;1779513;80;21819;-80
2020/12/21 01:44:24;;;;;;;8.30;6.20;;;;;;;-0.98;76.28;101721.13;1778453;80;21723;-80
2020/12/21 01:47:30;;;;;;;10.68;7.55;;;;;;;-1.06;76.51;101720.58;1779766;80;21287;-80
2020/12/21 01:50:36;;;;;;;9.08;6.30;;;;;;;-1.15;76.69;101716.95;1779529;80;21311;-80
2020/12/21 01:53:45;;;;;;;7.78;5.40;;;;;;;-1.20;77.00;101724.34;1778245;80;21227;-80
2020/12/21 01:56:51;;;;;;;8.48;5.85;;;;;;;-1.23;76.64;101726.67;1779940;80;21318;-80
2020/12/21 01:59:56;;;;;;;6.60;4.92;;;;;;;-1.32;76.28;101715.89;1778689;80;21484;-80
2020/12/21 02:03:08;;;;;;;11.65;5.40;;;;;;;-1.34;76.21;101713.72;1779756;80;22590;-80
2020/12/21 02:06:13;;;;;;;5.45;3.92;;;;;;;-1.37;76.16;101715.19;1779638;80;21303;-80
2020/12/21 02:09:19;;;;;;;8.65;4.08;;;;;;;-1.43;75.71;101730.22;1778168;80;21299;-80
2020/12/21 02:12:25;;;;;;;4.62;3.77;;;;;;;-1.53;75.42;101727.52;1779558;80;21707;-80
2020/12/21 02:15:31;;;;;;;5.53;4.28;;;;;;;-1.58;75.62;101722.83;1777925;80;21303;-80
2020/12/21 02:18:36;;;;;;;5.22;4.00;;;;;;;-1.59;75.90;101719.27;1754742;80;21236;-80
2020/12/21 02:21:42;;;;;;;5.15;3.10;;;;;;;-1.62;75.43;101719.38;1748746;82;21842;-80
2020/12/21 02:24:48;;;;;;;4.62;3.90;;;;;;;-1.66;75.59;101729.84;1747987;82;21723;-79
2020/12/21 02:27:55;;;;;;;4.45;3.65;;;;;;;-1.68;75.63;101721.47;1748809;82;21196;-80
2020/12/21 02:31:00;;;;;;;6.75;4.05;;;;;;;-1.73;76.08;101716.29;1747334;82;21945;-80
2020/12/21 02:34:05;;;;;;;11.22;6.22;;;;;;;-1.74;76.63;101723.94;1748341;82;21338;-79
2020/12/21 02:37:13;;;;;;;9.53;6.45;;;;;;;-1.71;77.21;101714.87;1748201;82;21843;-80
2020/12/21 02:40:18;;;;;;;7.97;5.03;;;;;;;-1.65;77.83;101724.00;1748747;82;21295;-80
2020/12/21 02:43:24;;;;;;;7.00;5.08;;;;;;;-1.64;77.82;101717.25;1748768;82;21299;-80
2020/12/21 02:46:29;;;;;;;7.20;5.47;;;;;;;-1.66;77.69;101728.50;1748806;82;21878;-80
2020/12/21 02:49:36;;;;;;;7.42;5.12;;;;;;;-1.67;77.50;101725.89;1748551;82;21292;-80
2020/12/21 02:52:42;;;;;;;5.72;4.55;;;;;;;-1.65;77.48;101719.97;1748742;82;21331;-80
2020/12/21 02:55:48;;;;;;;5.67;3.90;;;;;;;-1.67;77.13;101727.23;1747531;82;21741;-79
2020/12/21 02:58:53;;;;;;;5.35;3.75;;;;;;;-1.71;76.20;101721.11;1748756;82;21193;-79
2020/12/21 03:01:59;;;;;;;9.10;5.78;;;;;;;-1.72;76.11;101735.94;1748708;82;21244;-79
2020/12/21 03:05:05;;;;;;;5.22;3.80;;;;;;;-1.73;75.94;101726.15;1747160;82;21831;-79
2020/12/21 03:08:12;;;;;;;6.37;5.00;;;;;;;-1.74;75.80;101719.92;1748495;82;21259;-81
2020/12/21 03:11:18;;;;;;;5.35;3.67;;;;;;;-1.75;75.82;101722.17;1748869;82;21855;-81
2020/12/21 03:14:24;;;;;;;4.50;2.77;;;;;;;-1.75;75.59;101728.00;1748873;82;21335;-80
2020/12/21 03:17:30;;;;;;;4.03;2.75;;;;;;;-1.78;75.24;101727.68;1747560;82;21189;-80
2020/12/21 03:20:37;;;;;;;3.60;2.67;;;;;;;-1.87;75.33;101723.56;1780554;80;21716;-80
2020/12/21 03:23:43;;;;;;;4.92;3.37;;;;;;;-1.95;75.46;101733.72;1781937;80;21164;-80
2020/12/21 03:26:48;;;;;;;4.28;2.80;;;;;;;-2.01;75.90;101727.73;1781848;80;21184;-81
2020/12/21 03:29:54;;;;;;;2.67;2.42;;;;;;;-2.01;75.81;101733.97;1781888;80;21822;-81
2020/12/21 03:32:59;;;;;;;3.72;2.98;;;;;;;-2.00;75.92;101740.20;1780474;80;21361;-81
2020/12/21 03:36:05;;;;;;;3.98;3.10;;;;;;;-1.94;76.40;101743.50;1780386;80;21318;-81
2020/12/21 03:39:11;;;;;;;4.90;3.90;;;;;;;-1.89;76.63;101736.14;1781577;80;21362;-81
2020/12/21 03:42:16;;;;;;;3.90;3.05;;;;;;;-1.83;76.41;101750.67;1781812;80;21921;-80
2020/12/21 03:45:22;;;;;;;3.70;2.92;;;;;;;-1.80;76.10;101752.33;1781240;80;21719;-81
2020/12/21 03:48:27;;;;;;;3.67;3.15;;;;;;;-1.85;75.31;101755.20;1780442;80;21342;-81
2020/12/21 03:51:33;;;;;;;3.45;2.83;;;;;;;-1.85;75.19;101775.79;1780515;80;21381;-81
2020/12/21 03:54:39;;;;;;;2.92;2.62;;;;;;;-1.91;75.37;101766.66;1780575;80;21299;-81
2020/12/21 03:57:45;;;;;;;3.87;3.47;;;;;;;-1.96;75.61;101764.16;1780149;80;21869;-80
2020/12/21 04:00:51;;;;;;;6.22;4.85;;;;;;;-1.98;75.96;101764.67;1780536;80;21200;-80
2020/12/21 04:03:56;;;;;;;9.08;7.90;;;;;;;-1.98;76.17;101770.50;1781820;80;21770;-80
2020/12/21 04:07:03;;;;;;;4.47;4.03;;;;;;;-2.02;75.99;101771.11;1780942;80;21774;-80
2020/12/21 04:10:08;;;;;;;3.55;2.90;;;;;;;-2.08;75.76;101776.22;1781909;80;21811;-80
2020/12/21 04:13:15;;;;;;;3.50;2.67;;;;;;;-2.15;76.28;101785.92;1781631;80;21835;-80
2020/12/21 04:16:21;;;;;;;4.08;3.00;;;;;;;-2.23;76.24;101790.70;1779737;80;21203;-80
2020/12/21 04:19:27;;;;;;;5.67;5.08;;;;;;;-2.33;76.00;101785.69;1779660;80;21339;-80
2020/12/21 04:22:33;;;;;;;5.20;3.50;;;;;;;-2.41;76.04;101782.41;1777925;80;21315;-80
2020/12/21 04:25:39;;;;;;;5.05;3.95;;;;;;;-2.45;76.50;101782.11;1778998;80;21758;-80
2020/12/21 04:28:44;;;;;;;5.20;3.90;;;;;;;-2.51;76.91;101783.70;1779557;80;21299;-80
2020/12/21 04:31:50;;;;;;;4.92;3.87;;;;;;;-2.56;77.24;101774.95;1779638;80;21295;-80
2020/12/21 04:34:55;;;;;;;4.90;3.50;;;;;;;-2.57;77.44;101782.59;1779733;80;21820;-80
2020/12/21 04:38:02;;;;;;;4.87;3.72;;;;;;;-2.61;77.61;101783.16;1778052;80;21326;-80
2020/12/21 04:41:07;;;;;;;5.40;4.10;;;;;;;-2.59;77.91;101781.32;1779609;80;21875;-80
2020/12/21 04:44:13;;;;;;;4.55;3.55;;;;;;;-2.57;77.82;101786.61;1779675;80;21283;-80
2020/12/21 04:47:19;;;;;;;6.28;4.33;;;;;;;-2.57;77.99;101795.98;1778200;80;21192;-80
2020/12/21 04:50:25;;;;;;;6.25;4.33;;;;;;;-2.52;78.24;101794.48;1779587;80;21752;-80
2020/12/21 04:53:32;;;;;;;6.28;4.42;;;;;;;-2.46;78.29;101799.59;1778086;80;21318;-80
2020/12/21 04:56:37;;;;;;;5.90;5.03;;;;;;;-2.44;78.24;101790.59;1778955;80;21224;-80
2020/12/21 04:59:44;;;;;;;7.17;5.75;;;;;;;-2.41;78.35;101797.62;1779595;80;21302;-80
2020/12/21 05:02:50;;;;;;;5.78;4.42;;;;;;;-2.42;78.31;101797.22;1779600;80;21782;-80
2020/12/21 05:05:56;;;;;;;5.87;5.03;;;;;;;-2.41;78.52;101797.62;1779504;80;22246;-80
2020/12/21 05:09:15;;;;;;;4.40;3.80;;;;;;;-2.39;78.52;101792.63;1779491;80;21342;-80
2020/12/21 05:12:20;;;;;;;4.87;4.10;;;;;;;-2.37;78.28;101803.28;1778558;80;21319;-80
2020/12/21 05:15:25;;;;;;;5.08;4.25;;;;;;;-2.40;78.14;101798.92;1717667;80;21295;-80
2020/12/21 05:18:39;;;;;;;5.78;3.98;;;;;;;-2.37;78.04;101807.30;1779678;80;21227;-80
2020/12/21 05:21:46;;;;;;;5.55;4.62;;;;;;;-2.34;78.07;101805.39;1776458;80;21877;-81
2020/12/21 05:24:53;;;;;;;5.55;4.35;;;;;;;-2.27;78.02;101810.03;1735632;80;21375;-80
2020/12/21 05:28:00;;;;;;;6.75;4.92;;;;;;;-2.22;77.85;101807.19;1778253;80;21216;-80
2020/12/21 05:31:09;;;;;;;5.78;5.08;;;;;;;-2.28;77.70;101811.45;1779562;80;21339;-80
2020/12/21 05:34:15;;;;;;;7.90;5.10;;;;;;;-2.31;77.81;101811.08;1779415;80;21723;-80
2020/12/21 05:37:27;;;;;;;6.45;5.60;;;;;;;-2.33;77.86;101808.47;1778671;80;21291;-80
2020/12/21 05:40:33;;;;;;;5.37;4.45;;;;;;;-2.34;77.86;101804.05;1779257;80;21292;-80
2020/12/21 05:43:39;;;;;;;5.35;4.72;;;;;;;-2.34;77.70;101808.53;1778960;80;21311;-80
2020/12/21 05:46:44;;;;;;;4.67;4.12;;;;;;;-2.34;77.66;101806.73;1777962;79;21834;-80
2020/12/21 05:49:58;;;;;;;7.75;5.22;;;;;;;-2.30;77.75;101807.49;1781436;80;21296;-81
2020/12/21 05:53:03;;;;;;;6.90;5.80;;;;;;;-2.24;77.82;101807.72;1782342;79;21196;-80
2020/12/21 05:56:12;;;;;;;10.90;5.58;;;;;;;-2.22;77.64;101821.45;1761215;79;21256;-80
2020/12/21 05:59:18;;;;;;;9.00;4.55;;;;;;;-2.26;77.95;101806.42;1800865;79;21853;-80
2020/12/21 06:02:26;;;;;;;5.90;4.80;;;;;;;-2.24;78.14;101807.72;1789228;79;21275;-80
2020/12/21 06:05:31;;;;;;;8.40;6.10;;;;;;;-2.24;77.95;101821.99;1790462;79;21327;-80
2020/12/21 06:08:38;;;;;;;7.62;6.08;;;;;;;-2.26;77.84;101814.46;1782174;79;21561;-79
2020/12/21 06:11:43;;;;;;;7.28;5.00;;;;;;;-2.29;77.84;101821.30;1789600;79;21165;-79
2020/12/21 06:14:50;;;;;;;7.15;5.47;;;;;;;-2.30;77.68;101827.59;1788961;79;21263;-79
2020/12/21 06:17:56;;;;;;;7.83;5.47;;;;;;;-2.28;77.88;101828.40;1767059;79;21318;-79
2020/12/21 06:21:03;;;;;;;7.37;5.10;;;;;;;-2.27;77.74;101823.44;1798684;79;21270;-79
2020/12/21 06:24:10;;;;;;;7.60;5.30;;;;;;;-2.25;77.80;101818.05;1790147;79;21307;-81
2020/12/21 06:27:33;;;;;;;6.15;4.70;;;;;;;-2.28;77.78;101827.06;1792251;79;21347;-80
2020/12/21 06:30:39;;;;;;;5.97;4.47;;;;;;;-2.28;78.13;101830.21;1787501;79;21330;-80
2020/12/21 06:33:47;;;;;;;7.50;5.08;;;;;;;-2.24;78.17;101830.03;1791911;78;21283;-79
2020/12/21 06:36:53;;;;;;;7.12;5.60;;;;;;;-2.26;77.99;101823.84;1790661;79;21927;-78
2020/12/21 06:40:08;;;;;;;7.12;6.00;;;;;;;-2.30;78.24;101828.94;1791442;79;21287;-79
2020/12/21 06:43:20;;;;;;;7.35;5.78;;;;;;;-2.30;78.62;101826.73;1795099;79;21251;-79
2020/12/21 06:46:26;;;;;;;8.05;5.40;;;;;;;-2.30;78.92;101818.22;1800789;79;21873;-79
2020/12/21 06:49:33;;;;;;;12.20;8.08;;;;;;;-2.25;79.32;101814.02;1797778;79;21219;-79
2020/12/21 06:52:40;;;;;;;12.88;7.12;;;;;;;-2.22;79.40;101817.91;1797386;79;21215;-79
2020/12/21 06:55:45;;;;;;;12.25;7.50;;;;;;;-2.23;79.43;101817.51;1759036;81;21284;-79
2020/12/21 06:58:50;;;;;;;9.38;7.35;;;;;;;-2.26;79.56;101810.91;1720430;82;21339;-79
2020/12/21 07:01:57;;;;;;;12.45;7.00;;;;;;;-2.28;79.84;101812.78;1731051;81;21338;-79
2020/12/21 07:05:02;;;;;;;9.23;6.90;;;;;;;-2.30;80.11;101824.05;1734477;81;21327;-78
2020/12/21 07:08:09;;;;;;;7.70;6.20;;;;;;;-2.33;80.16;101820.53;1727336;80;21291;-78
2020/12/21 07:11:15;;;;;;;11.33;6.50;;;;;;;-2.32;80.27;101818.25;1738254;82;21767;-79
2020/12/21 07:14:24;;;;;;;9.03;7.12;;;;;;;-2.27;80.13;101811.84;1718869;82;21387;-79
2020/12/21 07:17:29;;;;;;;12.78;8.85;;;;;;;-2.24;80.22;101810.41;1729806;82;21248;-79
2020/12/21 07:20:37;;;;;;;12.68;8.10;;;;;;;-2.24;80.09;101815.77;1762458;81;21890;-78
2020/12/21 07:23:43;;;;;;;10.82;7.53;;;;;;;-2.26;80.03;101813.59;1724572;82;21244;-79
2020/12/21 07:26:54;;;;;;;9.75;6.17;;;;;;;-2.32;80.07;101811.55;1732468;82;21276;-79
2020/12/21 07:30:17;;;;;;;8.90;6.30;;;;;;;-2.27;80.37;101814.53;1723180;81;21287;-80
2020/12/21 07:33:35;;;;;;;14.00;10.90;;;;;;;-2.23;80.50;101829.09;1724437;81;21196;-78
2020/12/21 07:36:42;;;;;;;14.15;8.48;;;;;;;-2.25;80.38;101818.05;1734451;81;21346;-79
2020/12/21 07:39:50;;;;;;;11.95;8.05;;;;;;;-2.26;80.46;101819.82;1741920;81;21158;-78
2020/12/21 07:43:01;;;;;;;11.28;7.83;;;;;;;-2.29;80.65;101824.45;1719380;81;21637;-79
2020/12/21 07:46:13;;;;;;;11.12;8.18;;;;;;;-2.30;80.59;101825.38;1749051;80;21569;-79
2020/12/21 07:49:20;;;;;;;11.48;7.87;;;;;;;-2.34;80.87;101829.98;1750867;80;21687;-77
2020/12/21 07:52:26;;;;;;;12.60;9.53;;;;;;;-2.34;80.98;101822.81;1757227;81;21240;-79
2020/12/21 07:55:32;;;;;;;11.40;8.88;;;;;;;-2.29;81.16;101825.79;1754003;80;21181;-78
2020/12/21 07:58:42;;;;;;;14.70;9.80;;;;;;;-2.34;81.42;101822.81;1756865;80;21319;-78
2020/12/21 08:01:49;;;;;;;13.75;9.45;;;;;;;-2.29;81.79;101819.09;1726748;82;21870;-78
2020/12/21 08:04:55;;;;;;;15.38;9.40;;;;;;;-2.28;81.92;101823.04;1721937;82;21370;-78
2020/12/21 08:08:05;;;;;;;18.35;10.43;;;;;;;-2.31;81.97;101829.84;1736845;81;21411;-78
2020/12/21 08:11:19;;;;;;;16.27;10.18;;;;;;;-2.36;81.67;101828.67;1739098;81;21188;-78
2020/12/21 08:14:26;;;;;;;15.58;10.00;;;;;;;-2.38;81.53;101826.53;1743473;81;21371;-78
2020/12/21 08:17:37;;;;;;;16.17;10.30;;;;;;;-2.39;81.27;101826.13;1757519;80;21192;-78
2020/12/21 08:20:44;;;;;;;11.90;8.85;;;;;;;-2.38;81.14;101820.30;1724016;82;21926;-77
2020/12/21 08:23:53;;;;;;;11.83;8.93;;;;;;;-2.40;81.13;101816.34;1701581;81;21354;-77
2020/12/21 08:27:02;;;;;;;14.05;9.43;;;;;;;-2.41;81.24;101823.08;1731907;81;21835;-77
2020/12/21 08:30:26;;;;;;;15.98;11.15;;;;;;;-2.37;81.30;101823.37;1723547;82;21819;-78
2020/12/21 08:33:31;;;;;;;13.65;9.75;;;;;;;-2.39;81.12;101828.81;1730527;81;21341;-78
2020/12/21 08:36:45;;;;;;;12.05;7.80;;;;;;;-2.45;80.87;101812.93;1732251;81;21946;-79
2020/12/21 08:39:51;;;;;;;13.38;9.08;;;;;;;-2.42;80.93;101815.98;1735211;82;21315;-79
2020/12/21 08:43:00;;;;;;;14.43;9.80;;;;;;;-2.43;80.51;101820.47;1748603;81;21362;-79
2020/12/21 08:46:07;;;;;;;15.90;10.75;;;;;;;-2.47;80.47;101814.80;1727691;82;21331;-78
2020/12/21 08:49:15;;;;;;;14.65;9.00;;;;;;;-2.53;80.62;101829.78;1759595;80;21349;-78
2020/12/21 08:52:22;;;;;;;13.22;9.33;;;;;;;-2.60;80.69;101811.70;1726761;81;21303;-78
2020/12/21 08:55:28;;;;;;;13.43;9.48;;;;;;;-2.61;80.63;101821.14;1730548;81;21911;-79
2020/12/21 08:58:34;;;;;;;14.20;9.25;;;;;;;-2.64;80.32;101821.23;1733574;82;21989;-79
2020/12/21 09:01:41;;;;;;;11.08;7.53;;;;;;;-2.66;80.20;101815.07;1727514;82;21315;-79
2020/12/21 09:04:47;;;;;;;11.35;7.72;;;;;;;-2.69;79.58;101817.38;1728396;81;21599;-76
2020/12/21 09:07:54;;;;;;;10.65;8.25;;;;;;;-2.71;79.45;101809.01;1736450;82;21387;-78
2020/12/21 09:11:02;;;;;;;12.55;8.58;;;;;;;-2.73;79.75;101808.17;1731368;82;21992;-78
2020/12/21 09:14:08;;;;;;;11.08;7.17;;;;;;;-2.75;79.57;101796.66;1727062;81;21327;-78
2020/12/21 09:17:15;;;;;;;11.50;7.33;;;;;;;-2.69;79.66;101803.12;1730284;81;21295;-79
2020/12/21 09:20:21;;;;;;;16.23;10.13;;;;;;;-2.68;79.52;101799.50;1729637;81;21276;-78
2020/12/21 09:23:27;;;;;;;20.85;16.73;;;;;;;-2.71;79.47;101796.48;1731961;81;22243;-78
2020/12/21 09:26:33;;;;;;;14.50;9.85;;;;;;;-2.71;79.63;101792.47;1727396;81;21575;-78
2020/12/21 09:29:39;;;;;;;17.35;11.97;;;;;;;-2.70;79.64;101787.98;1720980;82;22660;-79
2020/12/21 09:32:44;;;;;;;18.77;12.35;;;;;;;-2.70;79.57;101787.98;1723297;82;21315;-78
2020/12/21 09:35:51;;;;;;;18.15;11.40;;;;;;;-2.70;79.62;101792.87;1782808;79;21288;-79
2020/12/21 09:38:58;;;;;;;21.10;12.85;;;;;;;-2.75;79.45;101783.26;1775700;79;21355;-78
2020/12/21 09:42:09;;;;;;;22.45;12.68;;;;;;;-2.76;79.45;101773.48;1772793;79;21760;-79
2020/12/21 09:45:16;;;;;;;19.35;11.80;;;;;;;-2.74;79.31;101783.20;1784690;79;22489;-79
2020/12/21 09:48:22;;;;;;;18.65;12.45;;;;;;;-2.74;79.34;101767.12;1778881;79;21294;-78
2020/12/21 09:51:37;;;;;;;22.62;12.78;;;;;;;-2.77;79.29;101767.73;1723589;81;21331;-78
2020/12/21 09:54:43;;;;;;;16.97;11.55;;;;;;;-2.77;79.53;101770.41;1786654;79;21366;-78
2020/12/21 09:57:44;;;;;;;23.55;15.75;;;;;;;-2.71;79.91;101773.72;1782709;79;21279;-78
2020/12/21 10:00:51;;;;;;;;;;;;;;;-2.67;79.95;101778.04;1783833;79;21165;-78
2020/12/21 10:04:00;;;;;;;28.07;18.07;;;;;;;-2.71;80.05;101771.04;1776206;79;20306;-78
2020/12/21 10:07:07;;;;;;;30.23;17.23;;;;;;;-2.78;80.31;101779.34;1784095;79;21342;-78
2020/12/21 10:10:20;;;;;;;22.93;14.55;;;;;;;-2.83;80.32;101781.72;1786662;79;21564;-79
2020/12/21 10:13:27;;;;;;;24.63;13.45;;;;;;;-2.83;80.45;101778.17;1779255;79;21276;-78
2020/12/21 10:16:33;;;;;;;27.35;14.95;;;;;;;-2.80;80.56;101771.38;1781939;79;21244;-77
2020/12/21 10:19:43;;;;;;;22.25;14.63;;;;;;;-2.79;80.12;101774.45;1774187;79;21310;-78
2020/12/21 10:22:52;;;;;;;;;;;;;;;-2.81;79.78;101777.67;1785782;79;21303;-79
2020/12/21 10:25:58;;;;;;;26.25;15.83;;;;;;;-2.83;79.67;101783.05;1784816;79;20314;-79
2020/12/21 10:29:10;;;;;;;29.00;17.10;;;;;;;-2.86;79.72;101775.16;1792722;79;21185;-79
2020/12/21 10:32:17;;;;;;;27.95;17.62;;;;;;;-2.89;79.89;101771.70;1789888;79;21814;-80
2020/12/21 10:35:24;;;;;;;34.15;19.62;;;;;;;-2.92;80.17;101765.98;1771626;79;21157;-79
2020/12/21 10:38:31;;;;;;;37.45;20.62;;;;;;;-2.90;80.32;101773.52;1791419;79;21306;-80
2020/12/21 10:41:42;;;;;;;36.08;17.82;;;;;;;-2.90;80.40;101774.85;1792256;79;21290;-79
2020/12/21 10:44:47;;;;;;;39.73;21.50;;;;;;;-2.92;80.47;101776.69;1793471;79;21307;-79
2020/12/21 10:47:53;;;;;;;35.48;20.23;;;;;;;-2.99;80.72;101780.53;1787354;79;21292;-78
2020/12/21 10:51:00;;;;;;;31.57;18.98;;;;;;;-3.03;81.02;101775.34;1792833;79;21295;-78
2020/12/21 10:54:11;;;;;;;28.77;17.67;;;;;;;-3.02;80.97;101779.76;1792260;79;21298;-78
2020/12/21 10:57:16;;;;;;;20.55;13.30;;;;;;;-2.97;80.75;101777.31;1786161;79;21557;-78
2020/12/21 11:00:25;;;;;;;17.57;11.45;;;;;;;-2.96;80.05;101775.08;1798106;79;21185;-78
2020/12/21 11:03:31;;;;;;;16.57;10.75;;;;;;;-2.96;79.60;101772.87;1790416;79;21378;-78
2020/12/21 11:06:38;;;;;;;20.85;10.68;;;;;;;-2.93;79.32;101773.61;1789830;79;21780;-78
2020/12/21 11:09:43;;;;;;;14.35;8.08;;;;;;;-2.84;79.29;101777.30;1789015;79;21272;-78
2020/12/21 11:12:51;;;;;;;13.20;7.95;;;;;;;-2.80;78.51;101775.86;1783518;79;21279;-78
2020/12/21 11:15:58;;;;;;;10.98;7.47;;;;;;;-2.83;77.89;101776.83;1781694;79;21375;-78
2020/12/21 11:19:04;;;;;;;9.70;6.50;;;;;;;-2.81;77.62;101780.81;1783223;79;21173;-78
2020/12/21 11:22:10;;;;;;;11.95;8.45;;;;;;;-2.81;77.12;101775.45;1784119;79;21683;-78
2020/12/21 11:25:15;;;;;;;11.05;6.95;;;;;;;-2.79;77.04;101775.80;1782364;79;22070;-78
2020/12/21 11:28:21;;;;;;;12.18;7.62;;;;;;;-2.80;77.06;101771.84;1766576;79;21318;-78
2020/12/21 11:31:27;;;;;;;14.98;9.18;;;;;;;-2.79;77.14;101770.91;1749921;81;21367;-78
2020/12/21 11:34:32;;;;;;;11.43;7.78;;;;;;;-2.82;77.25;101757.18;1714067;83;21377;-78
2020/12/21 11:37:38;;;;;;;12.55;7.85;;;;;;;-2.77;77.29;101767.73;1708981;82;21979;-78
2020/12/21 11:40:47;;;;;;;12.03;8.20;;;;;;;-2.81;76.68;101760.73;1720918;81;21203;-78
2020/12/21 11:43:55;;;;;;;11.60;7.00;;;;;;;-2.80;76.85;101767.83;1706014;83;21286;-79
2020/12/21 11:47:01;;;;;;;11.43;7.62;;;;;;;-2.79;77.07;101770.91;1708215;83;21315;-79
2020/12/21 11:50:08;;;;;;;12.40;7.75;;;;;;;-2.80;77.03;101766.02;1711155;83;21224;-77
2020/12/21 11:53:13;;;;;;;12.33;7.90;;;;;;;-2.81;77.17;101772.78;1715058;83;21847;-78
2020/12/21 11:56:24;;;;;;;11.97;7.53;;;;;;;-2.81;77.22;101762.94;1718290;81;21294;-79
2020/12/21 11:59:28;;;;;;;10.98;6.70;;;;;;;-2.78;77.15;101765.48;1691027;82;21362;-79
2020/12/21 12:02:34;;;;;;;13.15;7.95;;;;;;;-2.78;76.87;101773.98;1724883;81;21204;-79
2020/12/21 12:05:41;;;;;;;9.13;6.47;;;;;;;-2.78;76.96;101773.52;1723967;81;21304;-78
2020/12/21 12:08:47;;;;;;;11.55;7.47;;;;;;;-2.79;77.02;101781.62;1726514;83;21291;-77
2020/12/21 12:11:53;;;;;;;12.58;6.42;;;;;;;-2.76;76.75;101781.52;1708031;81;21402;-78
2020/12/21 12:15:00;;;;;;;11.65;5.97;;;;;;;-2.73;76.40;101772.02;1695553;83;21913;-79
2020/12/21 12:18:05;;;;;;;11.43;6.03;;;;;;;-2.74;75.91;101778.30;1702649;83;21883;-78
2020/12/21 12:21:11;;;;;;;11.83;6.55;;;;;;;-2.77;75.92;101777.09;1718590;83;21381;-77
2020/12/21 12:24:17;;;;;;;10.30;6.55;;;;;;;-2.80;75.79;101774.05;1718988;83;21291;-77
2020/12/21 12:27:27;;;;;;;9.13;5.78;;;;;;;-2.88;75.39;101794.40;1722710;81;21225;-77
2020/12/21 12:30:35;;;;;;;10.25;6.83;;;;;;;-2.94;75.62;101791.95;1727744;81;21390;-77
2020/12/21 12:33:43;;;;;;;12.90;7.12;;;;;;;-3.01;75.49;101791.77;1731288;81;21335;-77
2020/12/21 12:36:53;;;;;;;9.98;6.42;;;;;;;-3.09;75.40;101800.52;1733474;81;21772;-78
2020/12/21 12:40:00;;;;;;;12.13;6.20;;;;;;;-3.09;75.56;101797.38;1733115;81;21295;-78
2020/12/21 12:43:06;;;;;;;11.05;7.58;;;;;;;-3.02;75.47;101791.34;1730008;81;21169;-78
2020/12/21 12:46:13;;;;;;;9.68;6.37;;;;;;;-3.00;75.55;101800.67;1733896;81;21338;-78
2020/12/21 12:49:23;;;;;;;13.20;7.75;;;;;;;-3.04;75.72;101804.38;1736251;82;21307;-77
2020/12/21 12:52:31;;;;;;;15.43;9.30;;;;;;;-3.06;76.09;101805.75;1733554;81;21369;-78
2020/12/21 12:55:39;;;;;;;11.78;7.75;;;;;;;-3.12;76.48;101789.91;1732407;82;21872;-78
2020/12/21 12:58:48;;;;;;;11.13;7.20;;;;;;;-3.13;76.60;101790.84;1733824;81;21846;-79
2020/12/21 13:01:54;;;;;;;12.60;7.75;;;;;;;-3.11;76.62;101798.34;1726385;82;21844;-77
2020/12/21 13:05:02;;;;;;;13.40;8.55;;;;;;;-3.16;76.45;101801.65;1729648;82;21697;-77
2020/12/21 13:08:09;;;;;;;13.98;8.18;;;;;;;-3.24;76.58;101795.23;1730358;82;21190;-76
2020/12/21 13:11:16;;;;;;;14.05;7.62;;;;;;;-3.25;76.80;101805.97;1736447;81;21295;-77
2020/12/21 13:14:25;;;;;;;10.20;6.67;;;;;;;-3.22;76.63;101794.70;1728773;82;21834;-78
2020/12/21 13:17:34;;;;;;;10.60;7.35;;;;;;;-3.24;76.19;101805.94;1729977;82;21200;-79
2020/12/21 13:20:57;;;;;;;13.95;7.58;;;;;;;-3.30;76.03;101795.42;1734718;81;21189;-78
2020/12/21 13:24:09;;;;;;;11.12;6.83;;;;;;;-3.36;76.31;101806.34;1729305;82;21889;-78
2020/12/21 13:27:18;;;;;;;10.65;7.00;;;;;;;-3.36;76.66;101803.20;1725606;81;21227;-78
2020/12/21 13:30:26;;;;;;;15.03;8.85;;;;;;;-3.27;76.88;101799.34;1736536;81;21894;-77
2020/12/21 13:33:55;;;;;;;12.85;8.65;;;;;;;-3.19;76.74;101798.63;1736544;81;21839;-78
2020/12/21 13:37:13;;;;;;;12.78;7.65;;;;;;;-3.15;76.69;101800.74;1747900;82;22524;-77
2020/12/21 13:41:13;;;;;;;17.85;9.03;;;;;;;-3.11;76.67;101808.59;1731951;82;21750;-77
2020/12/21 13:44:44;;;;;;;17.27;9.05;;;;;;;-3.07;76.78;101799.13;1679732;82;21205;-79
2020/12/21 13:47:51;;;;;;;15.43;8.63;;;;;;;-3.08;76.86;101796.91;1729955;82;21292;-77
2020/12/21 13:50:56;;;;;;;18.60;10.55;;;;;;;-3.13;77.07;101790.84;1732605;82;21227;-78
2020/12/21 13:54:06;;;;;;;14.68;8.75;;;;;;;-3.13;77.15;101790.38;1727355;82;21205;-77
2020/12/21 13:57:15;;;;;;;12.90;8.58;;;;;;;-3.11;77.05;101792.52;1741251;82;21200;-77
2020/12/21 14:00:23;;;;;;;17.48;9.50;;;;;;;-3.12;77.01;101790.78;1708524;82;21913;-78
2020/12/21 14:03:31;;;;;;;17.57;10.45;;;;;;;-3.10;76.72;101793.42;1724197;82;21362;-78
2020/12/21 14:06:37;;;;;;;14.55;8.33;;;;;;;-3.12;76.52;101793.46;1744370;82;21209;-78
2020/12/21 14:09:43;;;;;;;14.18;9.10;;;;;;;-3.16;76.68;101800.31;1731530;82;21306;-77
2020/12/21 14:12:49;;;;;;;16.87;10.20;;;;;;;-3.16;76.88;101791.81;1733199;82;21196;-78
2020/12/21 14:15:54;;;;;;;19.60;9.73;;;;;;;-3.15;77.05;101784.22;1725869;82;21326;-78
2020/12/21 14:19:01;;;;;;;20.37;10.85;;;;;;;-3.12;77.26;101769.84;1746693;82;21303;-77
2020/12/21 14:22:07;;;;;;;30.15;10.60;;;;;;;-3.11;77.40;101768.90;1738433;81;21810;-77
2020/12/21 14:25:14;;;;;;;15.55;9.78;;;;;;;-3.13;77.60;101758.26;1727521;82;21859;-78